sensor_id;sensor_type;location;lat;lon;timestamp;P1;durP1;ratioP1;P2;durP2;ratioP2
25649;SDS011;13505;45.196;5.696;2022-10-17T04:00:47;7.65;;;5.45;;
25649;SDS011;13505;45.196;5.696;2022-10-17T04:05:38;6.95;;;5.10;;
25649;SDS011;13505;45.196;5.696;2022-10-17T04:10:28;11.17;;;5.47;;
25649;SDS011;13505;45.196;5.696;2022-10-17T04:15:18;7.90;;;5.40;;
25649;SDS011;13505;45.196;5.696;2022-10-17T04:20:09;8.33;;;5.00;;
25649;SDS011;13505;45.196;5.696;2022-10-17T04:24:59;7.53;;;4.95;;
25649;SDS011;13505;45.196;5.696;2022-10-17T04:29:49;7.93;;;4.77;;
25649;SDS011;13505;45.196;5.696;2022-10-17T04:34:40;9.63;;;4.97;;
25649;SDS011;13505;45.196;5.696;2022-10-17T04:39:30;7.90;;;5.43;;
25649;SDS011;13505;45.196;5.696;2022-10-17T04:44:21;7.90;;;4.57;;
25649;SDS011;13505;45.196;5.696;2022-10-17T04:49:12;12.15;;;5.10;;
25649;SDS011;13505;45.196;5.696;2022-10-17T04:54:02;8.47;;;4.87;;
25649;SDS011;13505;45.196;5.696;2022-10-17T04:58:52;6.65;;;4.72;;
25649;SDS011;13505;45.196;5.696;2022-10-17T05:03:43;8.35;;;4.65;;
25649;SDS011;13505;45.196;5.696;2022-10-17T05:08:34;6.60;;;4.30;;
25649;SDS011;13505;45.196;5.696;2022-10-17T05:13:25;7.88;;;4.57;;
25649;SDS011;13505;45.196;5.696;2022-10-17T05:18:15;8.50;;;4.80;;
25649;SDS011;13505;45.196;5.696;2022-10-17T05:23:05;10.23;;;4.50;;
25649;SDS011;13505;45.196;5.696;2022-10-17T05:27:56;9.53;;;4.27;;
25649;SDS011;13505;45.196;5.696;2022-10-17T05:32:46;14.38;;;5.13;;
25649;SDS011;13505;45.196;5.696;2022-10-17T05:37:36;5.70;;;4.47;;
25649;SDS011;13505;45.196;5.696;2022-10-17T05:42:27;9.65;;;4.60;;
25649;SDS011;13505;45.196;5.696;2022-10-17T05:47:17;8.15;;;4.75;;
25649;SDS011;13505;45.196;5.696;2022-10-17T05:52:07;14.50;;;5.07;;
25649;SDS011;13505;45.196;5.696;2022-10-17T05:56:58;8.65;;;5.03;;
25649;SDS011;13505;45.196;5.696;2022-10-17T06:01:48;10.00;;;4.87;;
25649;SDS011;13505;45.196;5.696;2022-10-17T06:06:38;5.30;;;3.27;;
25649;SDS011;13505;45.196;5.696;2022-10-17T06:11:29;8.38;;;4.20;;
25649;SDS011;13505;45.196;5.696;2022-10-17T06:16:20;10.38;;;5.10;;
25649;SDS011;13505;45.196;5.696;2022-10-17T06:21:11;8.45;;;5.40;;
25649;SDS011;13505;45.196;5.696;2022-10-17T06:26:06;10.52;;;5.13;;
25649;SDS011;13505;45.196;5.696;2022-10-17T06:30:56;9.98;;;5.40;;
25649;SDS011;13505;45.196;5.696;2022-10-17T06:35:50;15.73;;;6.95;;
25649;SDS011;13505;45.196;5.696;2022-10-17T06:40:41;11.65;;;6.30;;
25649;SDS011;13505;45.196;5.696;2022-10-17T06:45:32;12.88;;;6.10;;
25649;SDS011;13505;45.196;5.696;2022-10-17T06:50:22;14.65;;;6.55;;
25649;SDS011;13505;45.196;5.696;2022-10-17T06:55:12;11.30;;;6.13;;
25649;SDS011;13505;45.196;5.696;2022-10-17T07:00:03;8.02;;;5.60;;
25649;SDS011;13505;45.196;5.696;2022-10-17T07:04:55;14.02;;;6.13;;
25649;SDS011;13505;45.196;5.696;2022-10-17T07:09:45;13.50;;;5.87;;
25649;SDS011;13505;45.196;5.696;2022-10-17T07:14:35;8.23;;;5.40;;
25649;SDS011;13505;45.196;5.696;2022-10-17T07:19:26;11.98;;;5.15;;
25649;SDS011;13505;45.196;5.696;2022-10-17T07:24:16;7.20;;;5.10;;
25649;SDS011;13505;45.196;5.696;2022-10-17T07:29:06;11.63;;;5.40;;
25649;SDS011;13505;45.196;5.696;2022-10-17T07:33:59;11.48;;;5.53;;
25649;SDS011;13505;45.196;5.696;2022-10-17T07:38:49;9.48;;;5.28;;
25649;SDS011;13505;45.196;5.696;2022-10-17T07:43:40;8.15;;;5.18;;
25649;SDS011;13505;45.196;5.696;2022-10-17T07:48:31;10.25;;;4.93;;
25649;SDS011;13505;45.196;5.696;2022-10-17T07:53:22;16.45;;;5.20;;
25649;SDS011;13505;45.196;5.696;2022-10-17T07:58:12;10.65;;;4.65;;
25649;SDS011;13505;45.196;5.696;2022-10-17T08:03:03;9.40;;;4.82;;
25649;SDS011;13505;45.196;5.696;2022-10-17T08:07:53;7.28;;;5.00;;
25649;SDS011;13505;45.196;5.696;2022-10-17T08:12:44;11.30;;;5.32;;
25649;SDS011;13505;45.196;5.696;2022-10-17T08:17:35;22.40;;;5.40;;
25649;SDS011;13505;45.196;5.696;2022-10-17T08:22:26;10.45;;;4.68;;
25649;SDS011;13505;45.196;5.696;2022-10-17T08:27:16;13.63;;;4.57;;
25649;SDS011;13505;45.196;5.696;2022-10-17T08:32:12;13.55;;;5.03;;
25649;SDS011;13505;45.196;5.696;2022-10-17T08:37:03;12.77;;;5.40;;
25649;SDS011;13505;45.196;5.696;2022-10-17T08:42:02;15.83;;;4.83;;
25649;SDS011;13505;45.196;5.696;2022-10-17T08:47:00;17.27;;;5.40;;
25649;SDS011;13505;45.196;5.696;2022-10-17T08:51:54;13.27;;;5.32;;
25649;SDS011;13505;45.196;5.696;2022-10-17T08:56:52;10.48;;;5.03;;
25649;SDS011;13505;45.196;5.696;2022-10-17T09:01:47;8.02;;;4.60;;
25649;SDS011;13505;45.196;5.696;2022-10-17T09:06:52;9.93;;;4.47;;
25649;SDS011;13505;45.196;5.696;2022-10-17T09:17:55;13.63;;;4.68;;
25649;SDS011;13505;45.196;5.696;2022-10-17T09:22:57;5.82;;;3.92;;
25649;SDS011;13505;45.196;5.696;2022-10-17T09:28:03;10.85;;;4.30;;
25649;SDS011;13505;45.196;5.696;2022-10-17T09:38:05;6.10;;;3.90;;
25649;SDS011;13505;45.196;5.696;2022-10-17T09:42:57;5.85;;;4.15;;
25649;SDS011;13505;45.196;5.696;2022-10-17T09:58:15;7.47;;;3.50;;
25649;SDS011;13505;45.196;5.696;2022-10-17T10:03:13;9.60;;;3.60;;
25649;SDS011;13505;45.196;5.696;2022-10-17T10:08:09;7.60;;;4.00;;
25649;SDS011;13505;45.196;5.696;2022-10-17T10:13:15;7.13;;;3.80;;
25649;SDS011;13505;45.196;5.696;2022-10-17T10:23:17;8.50;;;3.50;;
25649;SDS011;13505;45.196;5.696;2022-10-17T10:28:10;5.75;;;3.20;;
25649;SDS011;13505;45.196;5.696;2022-10-17T10:33:01;12.38;;;4.97;;
25649;SDS011;13505;45.196;5.696;2022-10-17T10:37:52;15.25;;;5.07;;
25649;SDS011;13505;45.196;5.696;2022-10-17T10:42:49;11.40;;;4.15;;
25649;SDS011;13505;45.196;5.696;2022-10-17T10:47:57;7.60;;;3.95;;
25649;SDS011;13505;45.196;5.696;2022-10-17T10:52:52;9.03;;;3.60;;
25649;SDS011;13505;45.196;5.696;2022-10-17T10:57:50;6.13;;;3.78;;
25649;SDS011;13505;45.196;5.696;2022-10-17T11:13:24;4.90;;;3.38;;
25649;SDS011;13505;45.196;5.696;2022-10-17T11:18:21;8.90;;;3.63;;
25649;SDS011;13505;45.196;5.696;2022-10-17T11:23:16;6.72;;;3.63;;
25649;SDS011;13505;45.196;5.696;2022-10-17T11:28:17;5.75;;;3.20;;
25649;SDS011;13505;45.196;5.696;2022-10-17T11:33:09;3.95;;;3.15;;
25649;SDS011;13505;45.196;5.696;2022-10-17T11:53:18;8.02;;;2.83;;
25649;SDS011;13505;45.196;5.696;2022-10-17T11:58:27;5.93;;;3.28;;
25649;SDS011;13505;45.196;5.696;2022-10-17T12:13:58;3.75;;;2.95;;
25649;SDS011;13505;45.196;5.696;2022-10-17T12:19:17;7.70;;;3.53;;
25649;SDS011;13505;45.196;5.696;2022-10-17T12:23:59;5.53;;;3.17;;
25649;SDS011;13505;45.196;5.696;2022-10-17T12:28:49;5.43;;;3.00;;
25649;SDS011;13505;45.196;5.696;2022-10-17T12:33:57;7.50;;;3.20;;
25649;SDS011;13505;45.196;5.696;2022-10-17T12:38:50;8.18;;;3.50;;
25649;SDS011;13505;45.196;5.696;2022-10-17T12:43:53;5.28;;;3.40;;
25649;SDS011;13505;45.196;5.696;2022-10-17T12:59:04;6.47;;;3.30;;
25649;SDS011;13505;45.196;5.696;2022-10-17T13:04:02;9.95;;;3.33;;
25649;SDS011;13505;45.196;5.696;2022-10-17T13:08:56;6.45;;;3.15;;
25649;SDS011;13505;45.196;5.696;2022-10-17T13:13:51;14.23;;;3.70;;
25649;SDS011;13505;45.196;5.696;2022-10-17T13:18:43;7.20;;;3.33;;
25649;SDS011;13505;45.196;5.696;2022-10-17T13:23:41;9.85;;;3.00;;
25649;SDS011;13505;45.196;5.696;2022-10-17T13:28:32;6.80;;;3.75;;
25649;SDS011;13505;45.196;5.696;2022-10-17T13:33:27;10.48;;;3.42;;
25649;SDS011;13505;45.196;5.696;2022-10-17T13:38:24;9.73;;;3.70;;
25649;SDS011;13505;45.196;5.696;2022-10-17T13:43:18;6.60;;;3.17;;
25649;SDS011;13505;45.196;5.696;2022-10-17T13:48:33;4.63;;;3.30;;
25649;SDS011;13505;45.196;5.696;2022-10-17T13:53:26;7.75;;;3.25;;
25649;SDS011;13505;45.196;5.696;2022-10-17T13:58:20;7.85;;;2.83;;
25649;SDS011;13505;45.196;5.696;2022-10-17T14:03:11;6.05;;;3.22;;
25649;SDS011;13505;45.196;5.696;2022-10-17T14:08:02;8.48;;;3.78;;
25649;SDS011;13505;45.196;5.696;2022-10-17T14:12:53;4.88;;;3.25;;
25649;SDS011;13505;45.196;5.696;2022-10-17T14:17:44;6.72;;;3.40;;
25649;SDS011;13505;45.196;5.696;2022-10-17T14:22:35;5.03;;;3.33;;
25649;SDS011;13505;45.196;5.696;2022-10-17T14:27:30;9.07;;;3.70;;
25649;SDS011;13505;45.196;5.696;2022-10-17T14:32:26;8.27;;;3.38;;
25649;SDS011;13505;45.196;5.696;2022-10-17T14:42:38;5.45;;;3.40;;
25649;SDS011;13505;45.196;5.696;2022-10-17T14:47:29;9.27;;;3.70;;
25649;SDS011;13505;45.196;5.696;2022-10-17T14:52:22;8.38;;;3.70;;
25649;SDS011;13505;45.196;5.696;2022-10-17T15:02:29;13.73;;;3.92;;
25649;SDS011;13505;45.196;5.696;2022-10-17T15:07:20;5.87;;;3.47;;
25649;SDS011;13505;45.196;5.696;2022-10-17T15:12:15;8.38;;;3.75;;
25649;SDS011;13505;45.196;5.696;2022-10-17T15:17:13;7.38;;;3.70;;
25649;SDS011;13505;45.196;5.696;2022-10-17T15:22:07;8.35;;;3.90;;
25649;SDS011;13505;45.196;5.696;2022-10-17T15:26:57;7.90;;;4.23;;
25649;SDS011;13505;45.196;5.696;2022-10-17T15:31:48;9.67;;;3.80;;
25649;SDS011;13505;45.196;5.696;2022-10-17T15:36:39;7.97;;;4.00;;
25649;SDS011;13505;45.196;5.696;2022-10-17T15:41:31;9.18;;;3.90;;
25649;SDS011;13505;45.196;5.696;2022-10-17T15:46:23;5.45;;;4.45;;
25649;SDS011;13505;45.196;5.696;2022-10-17T15:51:15;8.05;;;4.28;;
25649;SDS011;13505;45.196;5.696;2022-10-17T15:56:06;5.97;;;3.92;;
25649;SDS011;13505;45.196;5.696;2022-10-17T16:01:00;9.23;;;3.53;;
25649;SDS011;13505;45.196;5.696;2022-10-17T16:05:51;5.38;;;3.60;;
25649;SDS011;13505;45.196;5.696;2022-10-17T16:10:42;4.73;;;3.40;;
25649;SDS011;13505;45.196;5.696;2022-10-17T16:15:32;11.33;;;3.80;;
25649;SDS011;13505;45.196;5.696;2022-10-17T16:20:23;7.07;;;3.83;;
25649;SDS011;13505;45.196;5.696;2022-10-17T16:25:21;12.35;;;3.67;;
25649;SDS011;13505;45.196;5.696;2022-10-17T16:30:14;9.23;;;3.60;;
25649;SDS011;13505;45.196;5.696;2022-10-17T16:35:05;7.25;;;3.60;;
25649;SDS011;13505;45.196;5.696;2022-10-17T16:39:56;9.45;;;3.95;;
25649;SDS011;13505;45.196;5.696;2022-10-17T16:44:49;7.73;;;3.90;;
25649;SDS011;13505;45.196;5.696;2022-10-17T16:49:40;8.25;;;3.92;;
25649;SDS011;13505;45.196;5.696;2022-10-17T16:54:30;4.75;;;3.58;;
25649;SDS011;13505;45.196;5.696;2022-10-17T16:59:21;5.80;;;3.70;;
25649;SDS011;13505;45.196;5.696;2022-10-17T17:04:11;5.40;;;3.67;;
25649;SDS011;13505;45.196;5.696;2022-10-17T17:09:01;10.05;;;4.20;;
25649;SDS011;13505;45.196;5.696;2022-10-17T17:13:55;7.00;;;3.70;;
25649;SDS011;13505;45.196;5.696;2022-10-17T17:18:47;7.25;;;3.65;;
25649;SDS011;13505;45.196;5.696;2022-10-17T17:23:40;5.70;;;3.38;;
25649;SDS011;13505;45.196;5.696;2022-10-17T17:28:32;8.75;;;4.15;;
25649;SDS011;13505;45.196;5.696;2022-10-17T17:33:24;12.13;;;4.68;;
25649;SDS011;13505;45.196;5.696;2022-10-17T17:38:15;7.35;;;4.00;;
25649;SDS011;13505;45.196;5.696;2022-10-17T17:43:05;7.43;;;4.03;;
25649;SDS011;13505;45.196;5.696;2022-10-17T17:47:55;5.57;;;3.83;;
25649;SDS011;13505;45.196;5.696;2022-10-17T17:52:45;6.00;;;4.03;;
25649;SDS011;13505;45.196;5.696;2022-10-17T17:57:39;9.02;;;3.95;;
25649;SDS011;13505;45.196;5.696;2022-10-17T18:02:29;7.97;;;4.00;;
25649;SDS011;13505;45.196;5.696;2022-10-17T18:07:20;7.10;;;4.45;;
25649;SDS011;13505;45.196;5.696;2022-10-17T18:12:10;8.53;;;4.57;;
25649;SDS011;13505;45.196;5.696;2022-10-17T18:17:00;8.30;;;4.23;;
25649;SDS011;13505;45.196;5.696;2022-10-17T18:21:51;7.15;;;4.35;;
25649;SDS011;13505;45.196;5.696;2022-10-17T18:26:41;7.40;;;4.80;;
25649;SDS011;13505;45.196;5.696;2022-10-17T18:31:31;8.05;;;4.47;;
25649;SDS011;13505;45.196;5.696;2022-10-17T18:36:24;9.25;;;4.65;;
25649;SDS011;13505;45.196;5.696;2022-10-17T18:41:16;7.38;;;4.90;;
25649;SDS011;13505;45.196;5.696;2022-10-17T18:46:09;14.32;;;5.43;;
25649;SDS011;13505;45.196;5.696;2022-10-17T18:51:02;7.03;;;4.95;;
25649;SDS011;13505;45.196;5.696;2022-10-17T18:55:53;8.07;;;5.45;;
25649;SDS011;13505;45.196;5.696;2022-10-17T19:00:44;12.50;;;5.43;;
25649;SDS011;13505;45.196;5.696;2022-10-17T19:05:36;8.32;;;5.13;;
25649;SDS011;13505;45.196;5.696;2022-10-17T19:10:27;7.40;;;5.15;;
25649;SDS011;13505;45.196;5.696;2022-10-17T19:15:17;6.97;;;5.23;;
25649;SDS011;13505;45.196;5.696;2022-10-17T19:20:08;10.25;;;5.20;;
25649;SDS011;13505;45.196;5.696;2022-10-17T19:24:59;8.20;;;5.15;;
25649;SDS011;13505;45.196;5.696;2022-10-17T19:29:49;7.10;;;5.13;;
25649;SDS011;13505;45.196;5.696;2022-10-17T19:34:39;8.73;;;5.87;;
25649;SDS011;13505;45.196;5.696;2022-10-17T19:39:30;9.80;;;5.70;;
25649;SDS011;13505;45.196;5.696;2022-10-17T19:44:20;12.40;;;5.63;;
25649;SDS011;13505;45.196;5.696;2022-10-17T19:49:11;11.45;;;5.30;;
25649;SDS011;13505;45.196;5.696;2022-10-17T19:54:02;11.45;;;5.25;;
25649;SDS011;13505;45.196;5.696;2022-10-17T19:58:52;8.48;;;5.13;;
25649;SDS011;13505;45.196;5.696;2022-10-17T20:03:44;9.30;;;5.13;;
25649;SDS011;13505;45.196;5.696;2022-10-17T20:08:36;6.50;;;4.72;;
25649;SDS011;13505;45.196;5.696;2022-10-17T20:13:27;6.55;;;5.00;;
25649;SDS011;13505;45.196;5.696;2022-10-17T20:18:17;6.37;;;4.90;;
25649;SDS011;13505;45.196;5.696;2022-10-17T20:23:07;14.50;;;5.35;;
25649;SDS011;13505;45.196;5.696;2022-10-17T20:27:58;10.20;;;4.93;;
25649;SDS011;13505;45.196;5.696;2022-10-17T20:32:48;10.03;;;5.03;;
25649;SDS011;13505;45.196;5.696;2022-10-17T20:37:38;9.00;;;5.80;;
25649;SDS011;13505;45.196;5.696;2022-10-17T20:42:29;7.20;;;4.95;;
25649;SDS011;13505;45.196;5.696;2022-10-17T20:47:19;10.13;;;5.13;;
25649;SDS011;13505;45.196;5.696;2022-10-17T20:52:10;9.90;;;4.97;;
25649;SDS011;13505;45.196;5.696;2022-10-17T20:57:00;6.90;;;4.97;;
25649;SDS011;13505;45.196;5.696;2022-10-17T21:01:52;7.32;;;4.90;;
25649;SDS011;13505;45.196;5.696;2022-10-17T21:06:42;9.30;;;5.55;;
25649;SDS011;13505;45.196;5.696;2022-10-17T21:11:33;11.10;;;5.53;;
25649;SDS011;13505;45.196;5.696;2022-10-17T21:16:23;13.00;;;5.93;;
25649;SDS011;13505;45.196;5.696;2022-10-17T21:21:16;9.23;;;5.30;;
25649;SDS011;13505;45.196;5.696;2022-10-17T21:26:11;8.23;;;5.72;;
25649;SDS011;13505;45.196;5.696;2022-10-17T21:31:13;8.25;;;5.43;;
25649;SDS011;13505;45.196;5.696;2022-10-17T21:36:08;12.65;;;5.57;;
25649;SDS011;13505;45.196;5.696;2022-10-17T21:40:59;9.70;;;6.10;;
25649;SDS011;13505;45.196;5.696;2022-10-17T21:45:49;9.20;;;6.13;;
25649;SDS011;13505;45.196;5.696;2022-10-17T21:50:39;11.38;;;5.60;;
25649;SDS011;13505;45.196;5.696;2022-10-17T21:55:30;14.50;;;6.40;;
